createdAt,value
2022-09-06T00:01:55.256Z,8.90
2022-09-06T00:04:22.933Z,9.00
2022-09-06T00:06:50.832Z,8.90
2022-09-06T00:09:18.763Z,8.90
2022-09-06T00:11:46.406Z,8.90
2022-09-06T00:14:14.028Z,8.80
2022-09-06T00:16:42.035Z,8.70
2022-09-06T00:19:09.652Z,8.60
2022-09-06T00:21:37.327Z,8.50
2022-09-06T00:24:05.404Z,8.50
2022-09-06T00:26:33.075Z,8.50
2022-09-06T00:29:00.816Z,8.50
2022-09-06T00:31:29.115Z,8.40
2022-09-06T00:33:56.849Z,8.40
2022-09-06T00:36:24.607Z,8.30
2022-09-06T00:38:52.590Z,8.30
2022-09-06T00:41:20.412Z,8.20
2022-09-06T00:43:48.130Z,8.20
2022-09-06T00:46:18.293Z,8.20
2022-09-06T00:48:47.381Z,8.20
2022-09-06T00:51:16.261Z,8.10
2022-09-06T00:53:44.749Z,8.00
2022-09-06T00:56:12.662Z,8.00
2022-09-06T00:58:40.544Z,8.00
2022-09-06T01:01:08.601Z,7.90
2022-09-06T01:03:37.393Z,7.90
2022-09-06T01:06:16.138Z,7.90
2022-09-06T01:08:50.214Z,7.80
2022-09-06T01:11:17.807Z,7.90
2022-09-06T01:13:48.456Z,7.90
2022-09-06T01:16:28.402Z,7.80
2022-09-06T01:19:02.191Z,7.70
2022-09-06T01:21:45.912Z,7.70
2022-09-06T01:24:19.797Z,7.70
2022-09-06T01:26:53.474Z,7.60
2022-09-06T01:29:36.970Z,7.60
2022-09-06T01:32:24.855Z,7.50
2022-09-06T01:34:54.821Z,7.50
2022-09-06T01:37:23.487Z,7.40
2022-09-06T01:39:51.178Z,7.40
2022-09-06T01:42:33.396Z,7.30
2022-09-06T01:45:27.345Z,7.30
2022-09-06T01:48:07.520Z,7.30
2022-09-06T01:50:38.139Z,7.30
2022-09-06T01:53:09.470Z,7.20
2022-09-06T01:55:49.013Z,7.20
2022-09-06T01:58:52.480Z,7.20
2022-09-06T02:01:22.869Z,7.10
2022-09-06T02:04:00.003Z,7.10
2022-09-06T02:06:29.730Z,7.10
2022-09-06T02:09:07.832Z,7.10
2022-09-06T02:11:41.095Z,7.00
2022-09-06T02:14:12.131Z,7.00
2022-09-06T02:16:41.716Z,7.00
2022-09-06T02:19:20.474Z,6.90
2022-09-06T02:21:49.487Z,6.90
2022-09-06T02:24:22.968Z,6.90
2022-09-06T02:26:50.768Z,6.90
2022-09-06T02:29:18.822Z,6.90
2022-09-06T02:31:50.971Z,6.90
2022-09-06T02:34:19.122Z,6.90
2022-09-06T02:36:47.262Z,6.90
2022-09-06T02:39:14.848Z,6.90
2022-09-06T02:41:43.662Z,6.90
2022-09-06T02:44:11.670Z,6.90
2022-09-06T02:46:39.301Z,6.90
2022-09-06T02:49:06.852Z,6.90
2022-09-06T02:51:38.646Z,6.90
2022-09-06T02:54:06.754Z,6.90
2022-09-06T02:56:36.762Z,6.90
2022-09-06T02:59:06.423Z,6.90
2022-09-06T03:01:34.146Z,6.80
2022-09-06T03:04:02.415Z,6.80
2022-09-06T03:06:30.918Z,6.70
2022-09-06T03:09:00.382Z,6.80
2022-09-06T03:11:28.085Z,6.70
2022-09-06T03:13:56.029Z,6.70
2022-09-06T03:16:23.854Z,6.70
2022-09-06T03:18:51.490Z,6.70
2022-09-06T03:21:19.592Z,6.60
2022-09-06T03:23:47.401Z,6.50
2022-09-06T03:26:16.367Z,6.50
2022-09-06T03:28:44.417Z,6.50
2022-09-06T03:31:12.450Z,6.40
2022-09-06T03:33:40.139Z,6.50
2022-09-06T03:36:08.507Z,6.50
2022-09-06T03:38:36.371Z,6.50
2022-09-06T03:41:03.890Z,6.50
2022-09-06T03:43:32.441Z,6.50
2022-09-06T03:46:00.128Z,6.50
2022-09-06T03:48:29.123Z,6.40
2022-09-06T03:50:58.616Z,6.40
2022-09-06T03:53:27.012Z,6.40
2022-09-06T03:55:55.252Z,6.30
2022-09-06T03:58:23.600Z,6.40
2022-09-06T04:00:59.738Z,6.30
2022-09-06T04:03:27.774Z,6.30
2022-09-06T04:05:55.342Z,6.30
2022-09-06T04:08:22.823Z,6.30
2022-09-06T04:10:52.949Z,6.30
2022-09-06T04:13:20.862Z,6.30
2022-09-06T04:15:48.449Z,6.40
2022-09-06T04:18:16.593Z,6.30
2022-09-06T04:20:45.417Z,6.40
2022-09-06T04:23:12.996Z,6.30
2022-09-06T04:25:40.863Z,6.30
2022-09-06T04:28:08.442Z,6.40
2022-09-06T04:30:35.968Z,6.40
2022-09-06T04:33:03.905Z,6.40
2022-09-06T04:35:31.446Z,6.40
2022-09-06T04:38:02.590Z,6.40
2022-09-06T04:40:30.484Z,6.50
2022-09-06T04:42:58.080Z,6.50
2022-09-06T04:45:25.670Z,6.50
2022-09-06T04:47:53.603Z,6.60
2022-09-06T04:50:21.135Z,6.60
2022-09-06T04:52:48.964Z,6.60
2022-09-06T04:55:17.026Z,6.60
2022-09-06T04:57:48.450Z,6.70
2022-09-06T05:00:19.055Z,6.80
2022-09-06T05:02:46.926Z,6.80
2022-09-06T05:05:14.902Z,7.00
2022-09-06T05:07:43.071Z,7.00
2022-09-06T05:10:10.893Z,7.00
2022-09-06T05:12:42.159Z,7.10
2022-09-06T05:15:12.444Z,7.20
2022-09-06T05:17:40.343Z,7.40
2022-09-06T05:20:08.394Z,7.50
2022-09-06T05:22:36.699Z,7.60
2022-09-06T05:25:04.549Z,7.70
2022-09-06T05:27:32.315Z,7.80
2022-09-06T05:30:00.409Z,7.90
2022-09-06T05:32:27.941Z,8.10
2022-09-06T05:34:55.504Z,8.20
2022-09-06T05:37:23.410Z,8.40
2022-09-06T05:39:51.118Z,8.50
2022-09-06T05:42:19.504Z,8.70
2022-09-06T05:44:47.587Z,8.80
2022-09-06T05:47:15.203Z,9.00
2022-09-06T05:49:42.834Z,9.10
2022-09-06T05:52:10.790Z,9.30
2022-09-06T05:54:38.936Z,9.30
2022-09-06T05:57:06.545Z,9.50
2022-09-06T05:59:34.413Z,9.60
2022-09-06T06:02:05.472Z,9.70
2022-09-06T06:04:35.277Z,9.80
2022-09-06T06:07:02.935Z,10.00
2022-09-06T06:09:30.690Z,10.10
2022-09-06T06:11:59.325Z,10.20
2022-09-06T06:14:26.886Z,10.30
2022-09-06T06:16:54.523Z,10.40
2022-09-06T06:19:23.371Z,10.50
2022-09-06T06:21:50.916Z,10.60
2022-09-06T06:24:18.552Z,10.70
2022-09-06T06:26:48.660Z,10.80
2022-09-06T06:29:16.518Z,10.80
2022-09-06T06:31:44.315Z,10.90
2022-09-06T06:34:12.476Z,11.00
2022-09-06T06:36:40.296Z,11.10
2022-09-06T06:39:09.095Z,11.20
2022-09-06T06:41:38.037Z,11.30
2022-09-06T06:44:24.454Z,11.40
2022-09-06T06:46:52.480Z,11.50
2022-09-06T06:49:20.183Z,11.50
2022-09-06T06:51:47.751Z,11.70
2022-09-06T06:54:15.805Z,11.70
2022-09-06T06:56:45.713Z,11.80
2022-09-06T06:59:13.534Z,11.90
2022-09-06T07:01:41.840Z,11.90
2022-09-06T07:04:12.302Z,12.00
2022-09-06T07:12:27.567Z,12.30
2022-09-06T07:14:55.846Z,12.40
2022-09-06T07:17:23.631Z,12.40
2022-09-06T07:22:39.677Z,12.60
2022-09-06T07:25:08.116Z,12.70
2022-09-06T07:27:51.018Z,12.80
2022-09-06T07:30:20.311Z,12.80
2022-09-06T07:32:48.388Z,12.90
2022-09-06T07:35:16.274Z,13.00
2022-09-06T07:37:44.226Z,13.10
2022-09-06T07:40:11.856Z,13.20
2022-09-06T07:42:39.501Z,13.30
2022-09-06T07:45:08.454Z,13.30
2022-09-06T07:53:15.669Z,13.50
2022-09-06T07:55:47.588Z,13.60
2022-09-06T07:58:15.567Z,13.70
2022-09-06T08:00:43.207Z,13.80
2022-09-06T08:03:11.174Z,13.90
2022-09-06T08:11:14.784Z,14.10
2022-09-06T08:13:42.680Z,14.20
2022-09-06T08:16:11.379Z,14.30
2022-09-06T08:18:39.243Z,14.40
2022-09-06T08:21:12.803Z,14.40
2022-09-06T08:24:01.000Z,14.50
2022-09-06T08:26:29.924Z,14.50
2022-09-06T08:29:00.316Z,14.50
2022-09-06T08:31:29.405Z,14.60
2022-09-06T08:33:58.658Z,14.70
2022-09-06T08:36:32.350Z,14.80
2022-09-06T08:39:01.529Z,14.80
2022-09-06T08:41:44.525Z,14.80
2022-09-06T08:47:07.897Z,15.00
2022-09-06T08:49:37.159Z,15.10
2022-09-06T08:52:07.793Z,15.20
2022-09-06T08:54:45.970Z,15.20
2022-09-06T08:57:13.741Z,15.30
2022-09-06T08:59:43.260Z,15.40
2022-09-06T09:02:11.218Z,15.40
2022-09-06T09:04:42.374Z,15.40
2022-09-06T09:07:30.434Z,15.50
2022-09-06T09:09:58.837Z,15.60
2022-09-06T09:12:27.458Z,15.70
2022-09-06T09:14:58.744Z,15.80
2022-09-06T09:17:28.227Z,15.80
2022-09-06T09:19:56.080Z,16.00
2022-09-06T09:22:24.698Z,16.00
2022-09-06T09:24:53.260Z,16.00
2022-09-06T09:27:22.915Z,16.10
2022-09-06T09:32:45.315Z,16.20
2022-09-06T09:35:18.691Z,16.30
2022-09-06T09:37:47.643Z,16.30
2022-09-06T09:40:18.415Z,16.40
2022-09-06T09:42:46.222Z,16.40
2022-09-06T09:45:23.004Z,16.50
2022-09-06T09:47:50.669Z,16.60
2022-09-06T09:50:44.899Z,16.60
2022-09-06T09:53:14.029Z,16.60
2022-09-06T09:55:42.545Z,16.60
2022-09-06T09:58:29.695Z,16.60
2022-09-06T10:01:17.323Z,16.70
2022-09-06T10:09:32.314Z,16.80
2022-09-06T10:12:00.852Z,16.70
2022-09-06T10:14:29.967Z,16.70
2022-09-06T10:16:58.591Z,16.80
2022-09-06T10:19:41.039Z,16.80
2022-09-06T10:22:23.990Z,16.80
2022-09-06T10:25:07.488Z,16.80
2022-09-06T10:27:36.116Z,16.90
2022-09-06T10:30:08.845Z,16.80
2022-09-06T10:32:46.125Z,16.80
2022-09-06T10:35:13.966Z,16.80
2022-09-06T10:37:41.768Z,16.90
2022-09-06T10:40:10.945Z,17.00
2022-09-06T10:42:59.396Z,17.10
2022-09-06T10:45:33.226Z,17.20
2022-09-06T10:48:02.892Z,17.20
2022-09-06T10:50:49.154Z,17.30
2022-09-06T10:53:17.067Z,17.30
2022-09-06T10:55:47.965Z,17.40
2022-09-06T10:58:19.065Z,17.50
2022-09-06T11:00:49.169Z,17.60
2022-09-06T11:06:07.978Z,17.60
2022-09-06T11:08:45.923Z,17.70
2022-09-06T11:11:17.496Z,17.80
2022-09-06T11:13:45.674Z,17.90
2022-09-06T11:16:20.970Z,17.90
2022-09-06T11:18:49.340Z,17.90
2022-09-06T11:21:19.696Z,17.90
2022-09-06T11:23:48.941Z,18.00
2022-09-06T11:26:34.684Z,18.00
2022-09-06T11:29:08.275Z,18.00
2022-09-06T11:34:44.678Z,17.90
2022-09-06T11:37:24.910Z,17.90
2022-09-06T11:42:55.636Z,17.70
2022-09-06T11:45:42.118Z,17.60
2022-09-06T11:48:34.401Z,17.50
2022-09-06T11:51:02.194Z,17.50
2022-09-06T11:53:31.251Z,17.50
2022-09-06T11:55:58.768Z,17.40
2022-09-06T11:58:31.561Z,17.40
2022-09-06T12:01:19.056Z,17.50
2022-09-06T12:06:39.122Z,17.50
2022-09-06T12:09:26.033Z,17.60
2022-09-06T12:11:55.457Z,17.50
2022-09-06T12:14:34.386Z,17.60
2022-09-06T12:17:05.095Z,17.60
2022-09-06T12:19:43.917Z,17.60
2022-09-06T12:22:29.149Z,17.60
2022-09-06T12:25:21.156Z,17.70
2022-09-06T12:27:57.437Z,17.70
2022-09-06T12:30:37.484Z,17.80
2022-09-06T12:33:36.552Z,17.80
2022-09-06T12:36:14.261Z,17.80
2022-09-06T12:38:54.806Z,17.90
2022-09-06T12:41:24.012Z,18.00
2022-09-06T12:43:53.072Z,18.00
2022-09-06T12:46:21.487Z,18.00
2022-09-06T12:49:10.091Z,18.00
2022-09-06T12:51:40.717Z,18.00
2022-09-06T12:54:18.286Z,18.00
2022-09-06T12:56:47.316Z,17.90
2022-09-06T12:59:21.722Z,18.00
2022-09-06T13:01:53.414Z,18.00
2022-09-06T13:04:24.534Z,18.00
2022-09-06T13:07:03.538Z,18.00
2022-09-06T13:09:33.119Z,18.10
2022-09-06T13:12:11.254Z,18.10
2022-09-06T13:14:39.622Z,18.10
2022-09-06T13:17:08.923Z,18.10
2022-09-06T13:19:38.344Z,18.10
2022-09-06T13:22:11.387Z,18.20
2022-09-06T13:24:47.872Z,18.20
2022-09-06T13:27:28.265Z,18.20
2022-09-06T13:29:57.507Z,18.30
2022-09-06T13:32:29.811Z,18.40
2022-09-06T13:34:59.671Z,18.40
2022-09-06T13:37:29.513Z,18.40
2022-09-06T13:39:58.241Z,18.40
2022-09-06T13:42:27.198Z,18.40
2022-09-06T13:44:59.979Z,18.40
2022-09-06T13:47:30.887Z,18.40
2022-09-06T13:49:59.587Z,18.50
2022-09-06T13:52:28.159Z,18.40
2022-09-06T13:54:56.969Z,18.40
2022-09-06T13:57:25.253Z,18.40
2022-09-06T13:59:53.479Z,18.40
2022-09-06T14:02:22.536Z,18.40
2022-09-06T14:04:50.625Z,18.40
2022-09-06T14:07:18.656Z,18.40
2022-09-06T14:09:48.111Z,18.40
2022-09-06T14:12:16.756Z,18.40
2022-09-06T14:14:44.966Z,18.40
2022-09-06T14:17:13.706Z,18.40
2022-09-06T14:19:41.907Z,18.40
2022-09-06T14:22:09.602Z,18.40
2022-09-06T14:24:37.894Z,18.40
2022-09-06T14:27:07.390Z,18.40
2022-09-06T14:29:35.846Z,18.40
2022-09-06T14:32:04.301Z,18.40
2022-09-06T14:34:32.467Z,18.40
2022-09-06T14:37:00.342Z,18.40
2022-09-06T14:39:28.843Z,18.40
2022-09-06T14:41:56.819Z,18.40
2022-09-06T14:44:24.961Z,18.40
2022-09-06T14:46:54.794Z,18.40
2022-09-06T14:49:22.984Z,18.40
2022-09-06T14:51:52.057Z,18.40
2022-09-06T14:54:26.084Z,18.40
2022-09-06T14:56:55.136Z,18.30
2022-09-06T14:59:23.612Z,18.20
2022-09-06T15:01:51.863Z,18.20
2022-09-06T15:04:19.984Z,18.20
2022-09-06T15:06:48.595Z,18.20
2022-09-06T15:09:17.057Z,18.10
2022-09-06T15:11:46.262Z,18.00
2022-09-06T15:14:25.213Z,18.00
2022-09-06T15:16:56.490Z,18.00
2022-09-06T15:19:25.363Z,17.90
2022-09-06T15:21:53.240Z,17.90
2022-09-06T15:24:21.298Z,17.90
2022-09-06T15:26:49.399Z,17.80
2022-09-06T15:29:17.153Z,17.80
2022-09-06T15:31:50.427Z,17.90
2022-09-06T15:34:19.313Z,17.80
2022-09-06T15:36:47.854Z,17.80
2022-09-06T15:39:15.491Z,17.70
2022-09-06T15:41:43.532Z,17.70
2022-09-06T15:44:13.244Z,17.70
2022-09-06T15:46:43.252Z,17.70
2022-09-06T15:49:12.723Z,17.70
2022-09-06T15:51:40.923Z,17.70
2022-09-06T15:54:09.230Z,17.70
2022-09-06T15:56:37.647Z,17.60
2022-09-06T15:59:05.957Z,17.70
2022-09-06T16:01:34.362Z,17.60
2022-09-06T16:04:03.911Z,17.60
2022-09-06T16:06:33.887Z,17.60
2022-09-06T16:09:14.326Z,17.60
2022-09-06T16:11:42.375Z,17.60
2022-09-06T16:14:11.425Z,17.60
2022-09-06T16:16:40.695Z,17.60
2022-09-06T16:19:10.106Z,17.60
2022-09-06T16:21:38.447Z,17.60
2022-09-06T16:24:07.189Z,17.60
2022-09-06T16:26:36.890Z,17.50
2022-09-06T16:29:05.324Z,17.50
2022-09-06T16:31:39.172Z,17.50
2022-09-06T16:34:08.623Z,17.50
2022-09-06T16:36:36.632Z,17.50
2022-09-06T16:39:04.411Z,17.50
2022-09-06T16:41:40.820Z,17.40
2022-09-06T16:44:09.175Z,17.40
2022-09-06T16:46:37.123Z,17.40
2022-09-06T16:49:04.769Z,17.30
2022-09-06T16:51:32.620Z,17.40
2022-09-06T16:54:00.773Z,17.20
2022-09-06T16:56:31.985Z,17.20
2022-09-06T16:59:00.563Z,17.20
2022-09-06T17:01:30.034Z,17.10
2022-09-06T17:03:58.166Z,17.10
2022-09-06T17:06:25.802Z,17.00
2022-09-06T17:08:55.658Z,16.90
2022-09-06T17:11:23.527Z,16.80
2022-09-06T17:13:52.338Z,16.70
2022-09-06T17:16:39.445Z,16.70
2022-09-06T17:19:07.240Z,16.60
2022-09-06T17:21:35.750Z,16.60
2022-09-06T17:24:04.811Z,16.50
2022-09-06T17:26:33.705Z,16.50
2022-09-06T17:29:01.621Z,16.40
2022-09-06T17:31:29.572Z,16.30
2022-09-06T17:33:57.196Z,16.30
2022-09-06T17:36:26.341Z,16.30
2022-09-06T17:38:59.309Z,16.20
2022-09-06T17:41:28.674Z,16.10
2022-09-06T17:43:57.544Z,16.10
2022-09-06T17:46:28.950Z,16.00
2022-09-06T17:48:57.177Z,15.90
2022-09-06T17:51:25.542Z,15.90
2022-09-06T17:53:53.647Z,15.90
2022-09-06T17:56:24.385Z,15.80
2022-09-06T17:58:54.337Z,15.70
2022-09-06T18:01:22.650Z,15.60
2022-09-06T18:03:50.901Z,15.60
2022-09-06T18:06:20.664Z,15.50
2022-09-06T18:08:48.779Z,15.50
2022-09-06T18:11:18.332Z,15.40
2022-09-06T18:13:47.325Z,15.30
2022-09-06T18:16:15.006Z,15.20
2022-09-06T18:18:42.930Z,15.10
2022-09-06T18:21:10.928Z,15.10
2022-09-06T18:23:38.575Z,15.00
2022-09-06T18:26:07.914Z,14.90
2022-09-06T18:28:36.890Z,14.80
2022-09-06T18:31:05.882Z,14.80
2022-09-06T18:33:34.324Z,14.70
2022-09-06T18:36:02.019Z,14.70
2022-09-06T18:38:29.707Z,14.60
2022-09-06T18:40:58.665Z,14.50
2022-09-06T18:43:33.704Z,14.50
2022-09-06T18:46:03.871Z,14.40
2022-09-06T18:48:33.067Z,14.40
2022-09-06T18:51:08.126Z,14.30
2022-09-06T18:53:36.437Z,14.30
2022-09-06T18:56:04.170Z,14.20
2022-09-06T18:58:31.955Z,14.20
2022-09-06T19:01:04.021Z,14.10
2022-09-06T19:03:32.286Z,14.00
2022-09-06T19:06:19.673Z,14.00
2022-09-06T19:08:48.487Z,13.90
2022-09-06T19:11:17.490Z,13.80
2022-09-06T19:13:46.011Z,13.80
2022-09-06T19:16:14.479Z,13.80
2022-09-06T19:18:42.200Z,13.70
2022-09-06T19:21:14.591Z,13.70
2022-09-06T19:23:44.401Z,13.60
2022-09-06T19:26:19.743Z,13.50
2022-09-06T19:28:56.004Z,13.40
2022-09-06T19:31:24.392Z,13.30
2022-09-06T19:33:52.636Z,13.30
2022-09-06T19:36:20.921Z,13.30
2022-09-06T19:39:05.223Z,13.20
2022-09-06T19:41:36.753Z,13.20
2022-09-06T19:44:06.043Z,13.20
2022-09-06T19:46:35.067Z,13.10
2022-09-06T19:49:03.592Z,13.10
2022-09-06T19:51:33.259Z,13.00
2022-09-06T19:54:00.867Z,13.00
2022-09-06T19:56:34.351Z,12.90
2022-09-06T19:59:03.810Z,12.90
2022-09-06T20:01:32.944Z,12.80
2022-09-06T20:04:02.871Z,12.70
2022-09-06T20:06:31.029Z,12.70
2022-09-06T20:08:59.533Z,12.60
2022-09-06T20:11:28.569Z,12.60
2022-09-06T20:13:56.313Z,12.50
2022-09-06T20:16:27.784Z,12.50
2022-09-06T20:18:55.412Z,12.40
2022-09-06T20:21:23.571Z,12.30
2022-09-06T20:23:52.464Z,12.30
2022-09-06T20:26:20.612Z,12.20
2022-09-06T20:28:49.037Z,12.20
2022-09-06T20:31:18.257Z,12.10
2022-09-06T20:33:49.639Z,12.10
2022-09-06T20:36:18.437Z,12.00
2022-09-06T20:38:46.738Z,12.00
2022-09-06T20:41:15.688Z,11.90
2022-09-06T20:43:51.662Z,11.90
2022-09-06T20:46:20.663Z,11.90
2022-09-06T20:48:48.957Z,11.80
2022-09-06T20:51:19.412Z,11.80
2022-09-06T20:53:48.387Z,11.80
2022-09-06T20:56:17.565Z,11.70
2022-09-06T20:59:00.936Z,11.70
2022-09-06T21:01:34.597Z,11.70
2022-09-06T21:04:03.740Z,11.60
2022-09-06T21:06:34.003Z,11.60
2022-09-06T21:09:02.384Z,11.50
2022-09-06T21:11:30.360Z,11.40
2022-09-06T21:13:58.032Z,11.30
2022-09-06T21:16:27.291Z,11.20
2022-09-06T21:18:56.497Z,11.20
2022-09-06T21:21:25.626Z,11.10
2022-09-06T21:23:54.312Z,11.00
2022-09-06T21:26:22.745Z,10.90
2022-09-06T21:28:50.414Z,10.80
2022-09-06T21:31:22.771Z,10.70
2022-09-06T21:33:55.204Z,10.60
2022-09-06T21:36:24.254Z,10.50
2022-09-06T21:38:56.020Z,10.50
2022-09-06T21:41:24.203Z,10.40
2022-09-06T21:43:56.237Z,10.40
2022-09-06T21:46:29.026Z,10.40
2022-09-06T21:49:00.526Z,10.40
2022-09-06T21:51:28.871Z,10.30
2022-09-06T21:53:59.383Z,10.30
2022-09-06T21:56:27.040Z,10.20
2022-09-06T21:58:55.956Z,10.20
2022-09-06T22:01:24.549Z,10.20
2022-09-06T22:03:52.174Z,10.10
2022-09-06T22:06:22.011Z,10.10
2022-09-06T22:08:49.654Z,10.00
2022-09-06T22:11:18.738Z,10.00
2022-09-06T22:13:47.410Z,9.90
2022-09-06T22:16:16.719Z,9.90
2022-09-06T22:18:45.141Z,9.90
2022-09-06T22:21:18.975Z,9.80
2022-09-06T22:23:50.680Z,9.80
2022-09-06T22:26:19.022Z,9.80
2022-09-06T22:28:47.007Z,9.80
2022-09-06T22:31:14.757Z,9.80
2022-09-06T22:33:42.767Z,9.80
2022-09-06T22:36:10.590Z,9.80
2022-09-06T22:38:38.215Z,9.80
2022-09-06T22:41:06.568Z,9.70
2022-09-06T22:43:34.134Z,9.60
2022-09-06T22:46:09.701Z,9.60
2022-09-06T22:48:37.916Z,9.60
2022-09-06T22:51:06.439Z,9.60
2022-09-06T22:53:34.279Z,9.60
2022-09-06T22:56:02.871Z,9.50
2022-09-06T22:58:30.736Z,9.50
2022-09-06T23:01:05.142Z,9.50
2022-09-06T23:03:33.335Z,9.50
2022-09-06T23:06:01.153Z,9.50
2022-09-06T23:08:28.949Z,9.50
2022-09-06T23:10:56.893Z,9.50
2022-09-06T23:13:24.457Z,9.40
2022-09-06T23:15:52.113Z,9.40
2022-09-06T23:18:19.996Z,9.30
2022-09-06T23:20:47.593Z,9.30
2022-09-06T23:23:15.145Z,9.30
2022-09-06T23:25:43.043Z,9.20
2022-09-06T23:28:10.605Z,9.20
2022-09-06T23:30:38.602Z,9.10
2022-09-06T23:33:06.523Z,9.10
2022-09-06T23:35:34.275Z,9.00
2022-09-06T23:38:01.818Z,8.90
2022-09-06T23:40:29.705Z,8.90
2022-09-06T23:42:57.437Z,8.90
2022-09-06T23:45:25.006Z,8.90
2022-09-06T23:47:52.896Z,8.80
2022-09-06T23:50:20.954Z,8.70
2022-09-06T23:52:48.576Z,8.70
2022-09-06T23:55:16.504Z,8.70
2022-09-06T23:57:44.083Z,8.70
